sensor_id;sensor_type;location;lat;lon;timestamp;pressure;altitude;pressure_sealevel;temperature;humidity
8398;BME280;4236;54.504;9.588;2022-10-15T00:01:42;100522.81;;;13.50;100.00
8398;BME280;4236;54.504;9.588;2022-10-15T00:04:10;100513.97;;;13.50;100.00
8398;BME280;4236;54.504;9.588;2022-10-15T00:06:39;100516.66;;;13.50;100.00
8398;BME280;4236;54.504;9.588;2022-10-15T00:09:06;100511.88;;;13.52;100.00
8398;BME280;4236;54.504;9.588;2022-10-15T00:11:34;100503.03;;;13.51;100.00
8398;BME280;4236;54.504;9.588;2022-10-15T00:14:02;100505.50;;;13.53;100.00
8398;BME280;4236;54.504;9.588;2022-10-15T00:16:30;100499.91;;;13.54;100.00
8398;BME280;4236;54.504;9.588;2022-10-15T00:18:58;100490.22;;;13.53;100.00
8398;BME280;4236;54.504;9.588;2022-10-15T00:21:26;100499.69;;;13.56;100.00
8398;BME280;4236;54.504;9.588;2022-10-15T00:23:55;100495.13;;;13.56;100.00
8398;BME280;4236;54.504;9.588;2022-10-15T00:26:26;100493.06;;;13.58;100.00
8398;BME280;4236;54.504;9.588;2022-10-15T00:28:55;100483.19;;;13.59;100.00
8398;BME280;4236;54.504;9.588;2022-10-15T00:31:25;100493.66;;;13.60;100.00
8398;BME280;4236;54.504;9.588;2022-10-15T00:33:55;100487.47;;;13.60;100.00
8398;BME280;4236;54.504;9.588;2022-10-15T00:36:24;100487.28;;;13.61;100.00
8398;BME280;4236;54.504;9.588;2022-10-15T00:38:52;100488.88;;;13.62;100.00
8398;BME280;4236;54.504;9.588;2022-10-15T00:41:23;100484.16;;;13.64;100.00
8398;BME280;4236;54.504;9.588;2022-10-15T00:43:53;100481.69;;;13.63;100.00
8398;BME280;4236;54.504;9.588;2022-10-15T00:46:24;100490.34;;;13.65;100.00
8398;BME280;4236;54.504;9.588;2022-10-15T00:48:55;100483.91;;;13.66;100.00
8398;BME280;4236;54.504;9.588;2022-10-15T00:51:28;100491.13;;;13.65;100.00
8398;BME280;4236;54.504;9.588;2022-10-15T00:53:58;100487.41;;;13.66;100.00
8398;BME280;4236;54.504;9.588;2022-10-15T00:56:29;100487.19;;;13.68;100.00
8398;BME280;4236;54.504;9.588;2022-10-15T00:58:58;100488.00;;;13.68;100.00
8398;BME280;4236;54.504;9.588;2022-10-15T01:01:26;100486.16;;;13.69;100.00
8398;BME280;4236;54.504;9.588;2022-10-15T01:03:54;100482.63;;;13.68;100.00
8398;BME280;4236;54.504;9.588;2022-10-15T01:06:23;100481.63;;;13.69;100.00
8398;BME280;4236;54.504;9.588;2022-10-15T01:08:50;100482.44;;;13.70;100.00
8398;BME280;4236;54.504;9.588;2022-10-15T01:11:36;100472.75;;;13.69;100.00
8398;BME280;4236;54.504;9.588;2022-10-15T01:14:18;100473.78;;;13.68;100.00
8398;BME280;4236;54.504;9.588;2022-10-15T01:16:54;100463.53;;;13.65;100.00
8398;BME280;4236;54.504;9.588;2022-10-15T01:19:31;100463.28;;;13.66;100.00
8398;BME280;4236;54.504;9.588;2022-10-15T01:22:10;100466.44;;;13.63;100.00
8398;BME280;4236;54.504;9.588;2022-10-15T01:24:57;100469.34;;;13.62;100.00
8398;BME280;4236;54.504;9.588;2022-10-15T01:27:32;100475.94;;;13.59;100.00
8398;BME280;4236;54.504;9.588;2022-10-15T01:30:15;100478.03;;;13.57;100.00
8398;BME280;4236;54.504;9.588;2022-10-15T01:32:47;100478.84;;;13.58;100.00
8398;BME280;4236;54.504;9.588;2022-10-15T01:35:25;100472.66;;;13.57;100.00
8398;BME280;4236;54.504;9.588;2022-10-15T01:38:02;100466.72;;;13.55;100.00
8398;BME280;4236;54.504;9.588;2022-10-15T01:40:35;100473.13;;;13.54;100.00
8398;BME280;4236;54.504;9.588;2022-10-15T01:43:10;100461.00;;;13.52;100.00
8398;BME280;4236;54.504;9.588;2022-10-15T01:45:45;100458.50;;;13.50;100.00
8398;BME280;4236;54.504;9.588;2022-10-15T01:48:15;100455.50;;;13.47;100.00
8398;BME280;4236;54.504;9.588;2022-10-15T01:50:45;100455.69;;;13.45;100.00
8398;BME280;4236;54.504;9.588;2022-10-15T01:53:15;100458.81;;;13.42;100.00
8398;BME280;4236;54.504;9.588;2022-10-15T01:55:44;100456.13;;;13.42;100.00
8398;BME280;4236;54.504;9.588;2022-10-15T01:58:15;100449.97;;;13.42;100.00
8398;BME280;4236;54.504;9.588;2022-10-15T02:00:46;100454.50;;;13.41;100.00
8398;BME280;4236;54.504;9.588;2022-10-15T02:03:14;100442.97;;;13.41;100.00
8398;BME280;4236;54.504;9.588;2022-10-15T02:05:46;100444.84;;;13.40;100.00
8398;BME280;4236;54.504;9.588;2022-10-15T02:08:19;100440.50;;;13.39;100.00
8398;BME280;4236;54.504;9.588;2022-10-15T02:10:55;100446.91;;;13.38;100.00
8398;BME280;4236;54.504;9.588;2022-10-15T02:13:31;100446.09;;;13.38;100.00
8398;BME280;4236;54.504;9.588;2022-10-15T02:16:11;100449.81;;;13.37;100.00
8398;BME280;4236;54.504;9.588;2022-10-15T02:18:44;100448.16;;;13.36;100.00
8398;BME280;4236;54.504;9.588;2022-10-15T02:21:15;100444.66;;;13.35;100.00
8398;BME280;4236;54.504;9.588;2022-10-15T02:23:47;100452.69;;;13.35;100.00
8398;BME280;4236;54.504;9.588;2022-10-15T02:26:18;100448.41;;;13.34;100.00
8398;BME280;4236;54.504;9.588;2022-10-15T02:28:51;100448.16;;;13.36;100.00
8398;BME280;4236;54.504;9.588;2022-10-15T02:31:22;100447.56;;;13.34;100.00
8398;BME280;4236;54.504;9.588;2022-10-15T02:33:52;100445.09;;;13.32;100.00
8398;BME280;4236;54.504;9.588;2022-10-15T02:36:21;100451.53;;;13.31;100.00
8398;BME280;4236;54.504;9.588;2022-10-15T02:38:50;100443.69;;;13.29;100.00
8398;BME280;4236;54.504;9.588;2022-10-15T02:41:19;100449.50;;;13.26;100.00
8398;BME280;4236;54.504;9.588;2022-10-15T02:43:47;100451.38;;;13.26;100.00
8398;BME280;4236;54.504;9.588;2022-10-15T02:46:16;100446.91;;;13.20;100.00
8398;BME280;4236;54.504;9.588;2022-10-15T02:48:46;100449.78;;;13.18;100.00
8398;BME280;4236;54.504;9.588;2022-10-15T02:51:14;100437.88;;;13.14;100.00
8398;BME280;4236;54.504;9.588;2022-10-15T02:53:41;100450.28;;;13.09;100.00
8398;BME280;4236;54.504;9.588;2022-10-15T02:56:09;100447.41;;;13.04;100.00
8398;BME280;4236;54.504;9.588;2022-10-15T02:58:36;100445.75;;;13.03;100.00
8398;BME280;4236;54.504;9.588;2022-10-15T03:01:04;100447.84;;;13.01;100.00
8398;BME280;4236;54.504;9.588;2022-10-15T03:03:32;100447.63;;;13.02;100.00
8398;BME280;4236;54.504;9.588;2022-10-15T03:06:01;100448.25;;;13.04;100.00
8398;BME280;4236;54.504;9.588;2022-10-15T03:08:28;100447.19;;;13.05;100.00
8398;BME280;4236;54.504;9.588;2022-10-15T03:10:58;100447.41;;;13.04;100.00
8398;BME280;4236;54.504;9.588;2022-10-15T03:13:26;100448.69;;;13.01;100.00
8398;BME280;4236;54.504;9.588;2022-10-15T03:15:54;100455.88;;;13.01;100.00
8398;BME280;4236;54.504;9.588;2022-10-15T03:18:22;100448.50;;;12.96;100.00
8398;BME280;4236;54.504;9.588;2022-10-15T03:20:53;100442.16;;;12.91;100.00
8398;BME280;4236;54.504;9.588;2022-10-15T03:23:22;100440.97;;;12.87;100.00
8398;BME280;4236;54.504;9.588;2022-10-15T03:25:50;100450.72;;;12.81;100.00
8398;BME280;4236;54.504;9.588;2022-10-15T03:28:17;100446.00;;;12.76;100.00
8398;BME280;4236;54.504;9.588;2022-10-15T03:30:45;100443.16;;;12.71;100.00
8398;BME280;4236;54.504;9.588;2022-10-15T03:33:13;100441.34;;;12.65;100.00
8398;BME280;4236;54.504;9.588;2022-10-15T03:35:40;100443.25;;;12.58;100.00
8398;BME280;4236;54.504;9.588;2022-10-15T03:38:08;100443.91;;;12.54;100.00
8398;BME280;4236;54.504;9.588;2022-10-15T03:40:37;100444.53;;;12.49;100.00
8398;BME280;4236;54.504;9.588;2022-10-15T03:43:05;100437.38;;;12.43;100.00
8398;BME280;4236;54.504;9.588;2022-10-15T03:45:32;100446.06;;;12.39;100.00
8398;BME280;4236;54.504;9.588;2022-10-15T03:48:00;100439.72;;;12.33;100.00
8398;BME280;4236;54.504;9.588;2022-10-15T03:50:28;100439.53;;;12.28;100.00
8398;BME280;4236;54.504;9.588;2022-10-15T03:52:55;100451.72;;;12.24;100.00
8398;BME280;4236;54.504;9.588;2022-10-15T03:55:23;100443.28;;;12.20;100.00
8398;BME280;4236;54.504;9.588;2022-10-15T03:57:52;100436.72;;;12.16;100.00
8398;BME280;4236;54.504;9.588;2022-10-15T04:00:20;100439.00;;;12.13;100.00
8398;BME280;4236;54.504;9.588;2022-10-15T04:02:47;100441.31;;;12.09;100.00
8398;BME280;4236;54.504;9.588;2022-10-15T04:05:15;100444.81;;;12.03;100.00
8398;BME280;4236;54.504;9.588;2022-10-15T04:07:43;100453.88;;;12.02;100.00
8398;BME280;4236;54.504;9.588;2022-10-15T04:10:10;100455.13;;;12.00;100.00
8398;BME280;4236;54.504;9.588;2022-10-15T04:12:38;100459.63;;;11.99;100.00
8398;BME280;4236;54.504;9.588;2022-10-15T04:15:08;100458.38;;;12.02;100.00
8398;BME280;4236;54.504;9.588;2022-10-15T04:17:35;100452.84;;;12.03;100.00
8398;BME280;4236;54.504;9.588;2022-10-15T04:20:03;100466.16;;;12.10;100.00
8398;BME280;4236;54.504;9.588;2022-10-15T04:22:31;100460.78;;;12.16;100.00
8398;BME280;4236;54.504;9.588;2022-10-15T04:24:59;100460.16;;;12.21;100.00
8398;BME280;4236;54.504;9.588;2022-10-15T04:27:26;100463.19;;;12.25;100.00
8398;BME280;4236;54.504;9.588;2022-10-15T04:29:54;100466.91;;;12.30;100.00
8398;BME280;4236;54.504;9.588;2022-10-15T04:32:23;100466.25;;;12.35;100.00
8398;BME280;4236;54.504;9.588;2022-10-15T04:34:51;100464.97;;;12.37;100.00
8398;BME280;4236;54.504;9.588;2022-10-15T04:37:18;100468.06;;;12.41;100.00
8398;BME280;4236;54.504;9.588;2022-10-15T04:39:46;100465.78;;;12.44;100.00
8398;BME280;4236;54.504;9.588;2022-10-15T04:42:14;100464.75;;;12.45;100.00
8398;BME280;4236;54.504;9.588;2022-10-15T04:44:41;100475.03;;;12.48;100.00
8398;BME280;4236;54.504;9.588;2022-10-15T04:47:09;100471.28;;;12.49;100.00
8398;BME280;4236;54.504;9.588;2022-10-15T04:49:38;100481.56;;;12.52;100.00
8398;BME280;4236;54.504;9.588;2022-10-15T04:52:05;100475.63;;;12.50;100.00
8398;BME280;4236;54.504;9.588;2022-10-15T04:54:33;100484.66;;;12.49;100.00
8398;BME280;4236;54.504;9.588;2022-10-15T04:57:01;100484.66;;;12.49;100.00
8398;BME280;4236;54.504;9.588;2022-10-15T04:59:29;100489.19;;;12.49;100.00
8398;BME280;4236;54.504;9.588;2022-10-15T05:01:56;100486.31;;;12.50;100.00
8398;BME280;4236;54.504;9.588;2022-10-15T05:04:24;100484.47;;;12.51;100.00
8398;BME280;4236;54.504;9.588;2022-10-15T05:06:53;100483.63;;;12.50;100.00
8398;BME280;4236;54.504;9.588;2022-10-15T05:09:20;100485.28;;;12.51;100.00
8398;BME280;4236;54.504;9.588;2022-10-15T05:11:48;100487.97;;;12.51;100.00
8398;BME280;4236;54.504;9.588;2022-10-15T05:14:16;100486.09;;;12.52;100.00
8398;BME280;4236;54.504;9.588;2022-10-15T05:16:44;100488.75;;;12.52;100.00
8398;BME280;4236;54.504;9.588;2022-10-15T05:19:12;100492.25;;;12.52;100.00
8398;BME280;4236;54.504;9.588;2022-10-15T05:21:39;100490.63;;;12.51;100.00
8398;BME280;4236;54.504;9.588;2022-10-15T05:24:09;100489.59;;;12.52;100.00
8398;BME280;4236;54.504;9.588;2022-10-15T05:26:37;100489.38;;;12.54;100.00
8398;BME280;4236;54.504;9.588;2022-10-15T05:29:04;100494.72;;;12.54;100.00
8398;BME280;4236;54.504;9.588;2022-10-15T05:31:33;100491.22;;;12.53;100.00
8398;BME280;4236;54.504;9.588;2022-10-15T05:34:05;100492.88;;;12.54;100.00
8398;BME280;4236;54.504;9.588;2022-10-15T05:36:33;100485.66;;;12.55;100.00
8398;BME280;4236;54.504;9.588;2022-10-15T05:39:03;100489.16;;;12.55;100.00
8398;BME280;4236;54.504;9.588;2022-10-15T05:41:33;100492.06;;;12.54;100.00
8398;BME280;4236;54.504;9.588;2022-10-15T05:44:01;100497.19;;;12.55;100.00
8398;BME280;4236;54.504;9.588;2022-10-15T05:46:29;100493.47;;;12.56;100.00
8398;BME280;4236;54.504;9.588;2022-10-15T05:48:57;100505.19;;;12.55;100.00
8398;BME280;4236;54.504;9.588;2022-10-15T05:51:26;100505.44;;;12.54;100.00
8398;BME280;4236;54.504;9.588;2022-10-15T05:53:55;100506.44;;;12.53;100.00
8398;BME280;4236;54.504;9.588;2022-10-15T05:56:23;100517.56;;;12.56;100.00
8398;BME280;4236;54.504;9.588;2022-10-15T05:58:52;100514.28;;;12.54;100.00
8398;BME280;4236;54.504;9.588;2022-10-15T06:01:20;100518.19;;;12.52;100.00
8398;BME280;4236;54.504;9.588;2022-10-15T06:03:48;100513.66;;;12.52;100.00
8398;BME280;4236;54.504;9.588;2022-10-15T06:06:17;100521.91;;;12.51;100.00
8398;BME280;4236;54.504;9.588;2022-10-15T06:08:45;100525.59;;;12.50;100.00
8398;BME280;4236;54.504;9.588;2022-10-15T06:11:13;100516.56;;;12.51;100.00
8398;BME280;4236;54.504;9.588;2022-10-15T06:13:42;100527.03;;;12.52;100.00
8398;BME280;4236;54.504;9.588;2022-10-15T06:16:13;100512.63;;;12.53;100.00
8398;BME280;4236;54.504;9.588;2022-10-15T06:18:46;100528.44;;;12.55;100.00
8398;BME280;4236;54.504;9.588;2022-10-15T06:21:14;100527.19;;;12.57;100.00
8398;BME280;4236;54.504;9.588;2022-10-15T06:23:41;100521.84;;;12.57;100.00
8398;BME280;4236;54.504;9.588;2022-10-15T06:26:09;100531.75;;;12.57;100.00
8398;BME280;4236;54.504;9.588;2022-10-15T06:28:37;100534.44;;;12.57;100.00
8398;BME280;4236;54.504;9.588;2022-10-15T06:31:05;100536.03;;;12.58;100.00
8398;BME280;4236;54.504;9.588;2022-10-15T06:33:35;100535.03;;;12.59;100.00
8398;BME280;4236;54.504;9.588;2022-10-15T06:36:04;100540.97;;;12.61;100.00
8398;BME280;4236;54.504;9.588;2022-10-15T06:38:32;100531.91;;;12.62;100.00
8398;BME280;4236;54.504;9.588;2022-10-15T06:41:02;100528.00;;;12.64;100.00
8398;BME280;4236;54.504;9.588;2022-10-15T06:43:30;100536.84;;;12.65;100.00
8398;BME280;4236;54.504;9.588;2022-10-15T06:46:01;100533.50;;;12.69;100.00
8398;BME280;4236;54.504;9.588;2022-10-15T06:48:30;100537.22;;;12.68;100.00
8398;BME280;4236;54.504;9.588;2022-10-15T06:51:00;100533.91;;;12.73;100.00
8398;BME280;4236;54.504;9.588;2022-10-15T06:53:28;100538.81;;;12.76;100.00
8398;BME280;4236;54.504;9.588;2022-10-15T06:55:56;100537.38;;;12.80;100.00
8398;BME280;4236;54.504;9.588;2022-10-15T06:58:24;100539.81;;;12.82;100.00
8398;BME280;4236;54.504;9.588;2022-10-15T07:00:52;100534.41;;;12.88;100.00
8398;BME280;4236;54.504;9.588;2022-10-15T07:03:20;100544.50;;;12.93;100.00
8398;BME280;4236;54.504;9.588;2022-10-15T07:05:47;100545.69;;;12.97;100.00
8398;BME280;4236;54.504;9.588;2022-10-15T07:08:16;100541.75;;;12.99;100.00
8398;BME280;4236;54.504;9.588;2022-10-15T07:10:45;100547.09;;;12.99;100.00
8398;BME280;4236;54.504;9.588;2022-10-15T07:13:12;100537.59;;;13.03;100.00
8398;BME280;4236;54.504;9.588;2022-10-15T07:15:40;100549.72;;;13.06;100.00
8398;BME280;4236;54.504;9.588;2022-10-15T07:18:09;100554.25;;;13.05;100.00
8398;BME280;4236;54.504;9.588;2022-10-15T07:20:37;100553.66;;;13.10;100.00
8398;BME280;4236;54.504;9.588;2022-10-15T07:23:05;100553.81;;;13.15;100.00
8398;BME280;4236;54.504;9.588;2022-10-15T07:25:33;100549.69;;;13.19;100.00
8398;BME280;4236;54.504;9.588;2022-10-15T07:28:01;100557.03;;;13.23;100.00
8398;BME280;4236;54.504;9.588;2022-10-15T07:30:29;100556.78;;;13.32;100.00
8398;BME280;4236;54.504;9.588;2022-10-15T07:32:57;100552.19;;;13.39;100.00
8398;BME280;4236;54.504;9.588;2022-10-15T07:35:25;100553.97;;;13.45;100.00
8398;BME280;4236;54.504;9.588;2022-10-15T07:37:53;100544.25;;;13.50;100.00
8398;BME280;4236;54.504;9.588;2022-10-15T07:40:21;100552.22;;;13.57;100.00
8398;BME280;4236;54.504;9.588;2022-10-15T07:42:52;100561.09;;;13.57;100.00
8398;BME280;4236;54.504;9.588;2022-10-15T07:45:20;100550.97;;;13.59;100.00
8398;BME280;4236;54.504;9.588;2022-10-15T07:47:48;100555.72;;;13.57;100.00
8398;BME280;4236;54.504;9.588;2022-10-15T07:50:16;100553.88;;;13.58;100.00
8398;BME280;4236;54.504;9.588;2022-10-15T07:52:44;100551.78;;;13.60;100.00
8398;BME280;4236;54.504;9.588;2022-10-15T07:55:11;100561.09;;;13.57;100.00
8398;BME280;4236;54.504;9.588;2022-10-15T07:57:39;100554.06;;;13.56;100.00
8398;BME280;4236;54.504;9.588;2022-10-15T08:00:09;100555.13;;;13.55;100.00
8398;BME280;4236;54.504;9.588;2022-10-15T08:02:37;100561.31;;;13.56;100.00
8398;BME280;4236;54.504;9.588;2022-10-15T08:05:05;100564.06;;;13.49;100.00
8398;BME280;4236;54.504;9.588;2022-10-15T08:07:33;100565.53;;;13.45;100.00
8398;BME280;4236;54.504;9.588;2022-10-15T08:10:01;100565.13;;;13.42;100.00
8398;BME280;4236;54.504;9.588;2022-10-15T08:12:28;100563.28;;;13.42;100.00
8398;BME280;4236;54.504;9.588;2022-10-15T08:14:56;100565.13;;;13.42;100.00
8398;BME280;4236;54.504;9.588;2022-10-15T08:17:25;100555.47;;;13.41;100.00
8398;BME280;4236;54.504;9.588;2022-10-15T08:19:52;100557.28;;;13.47;100.00
8398;BME280;4236;54.504;9.588;2022-10-15T08:22:20;100562.41;;;13.48;100.00
8398;BME280;4236;54.504;9.588;2022-10-15T08:24:48;100565.91;;;13.49;100.00
8398;BME280;4236;54.504;9.588;2022-10-15T08:27:17;100563.38;;;13.54;100.00
8398;BME280;4236;54.504;9.588;2022-10-15T08:29:45;100559.44;;;13.56;100.00
8398;BME280;4236;54.504;9.588;2022-10-15T08:32:13;100554.91;;;13.57;100.00
8398;BME280;4236;54.504;9.588;2022-10-15T08:34:42;100551.97;;;13.65;100.00
8398;BME280;4236;54.504;9.588;2022-10-15T08:37:09;100554.34;;;13.73;100.00
8398;BME280;4236;54.504;9.588;2022-10-15T08:39:37;100558.59;;;13.80;100.00
8398;BME280;4236;54.504;9.588;2022-10-15T08:42:10;100546.16;;;13.86;100.00
8398;BME280;4236;54.504;9.588;2022-10-15T08:44:44;100554.50;;;13.96;100.00
8398;BME280;4236;54.504;9.588;2022-10-15T08:47:22;100554.13;;;14.11;100.00
8398;BME280;4236;54.504;9.588;2022-10-15T08:49:55;100550.41;;;14.30;100.00
8398;BME280;4236;54.504;9.588;2022-10-15T08:52:27;100554.50;;;14.51;100.00
8398;BME280;4236;54.504;9.588;2022-10-15T08:54:59;100553.69;;;14.50;100.00
8398;BME280;4236;54.504;9.588;2022-10-15T08:57:36;100559.03;;;14.50;100.00
8398;BME280;4236;54.504;9.588;2022-10-15T09:00:13;100557.63;;;14.48;100.00
8398;BME280;4236;54.504;9.588;2022-10-15T09:02:49;100557.72;;;14.41;100.00
8398;BME280;4236;54.504;9.588;2022-10-15T09:05:27;100566.34;;;14.43;100.00
8398;BME280;4236;54.504;9.588;2022-10-15T09:08:00;100560.69;;;14.51;100.00
8398;BME280;4236;54.504;9.588;2022-10-15T09:10:35;100566.28;;;14.50;100.00
8398;BME280;4236;54.504;9.588;2022-10-15T09:13:11;100567.53;;;14.47;100.00
8398;BME280;4236;54.504;9.588;2022-10-15T09:15:47;100564.88;;;14.47;100.00
8398;BME280;4236;54.504;9.588;2022-10-15T09:18:20;100567.91;;;14.51;100.00
8398;BME280;4236;54.504;9.588;2022-10-15T09:20:50;100565.44;;;14.49;100.00
8398;BME280;4236;54.504;9.588;2022-10-15T09:23:21;100575.81;;;14.46;100.00
8398;BME280;4236;54.504;9.588;2022-10-15T09:25:55;100572.53;;;14.44;100.00
8398;BME280;4236;54.504;9.588;2022-10-15T09:28:29;100569.41;;;14.47;100.00
8398;BME280;4236;54.504;9.588;2022-10-15T09:31:00;100574.78;;;14.47;100.00
8398;BME280;4236;54.504;9.588;2022-10-15T09:33:34;100569.19;;;14.48;100.00
8398;BME280;4236;54.504;9.588;2022-10-15T09:36:16;100561.34;;;14.47;100.00
8398;BME280;4236;54.504;9.588;2022-10-15T09:38:52;100559.00;;;14.38;100.00
8398;BME280;4236;54.504;9.588;2022-10-15T09:41:30;100563.41;;;14.33;100.00
8398;BME280;4236;54.504;9.588;2022-10-15T09:44:00;100571.22;;;14.34;100.00
8398;BME280;4236;54.504;9.588;2022-10-15T09:46:32;100570.16;;;14.35;100.00
8398;BME280;4236;54.504;9.588;2022-10-15T09:49:05;100571.22;;;14.34;100.00
8398;BME280;4236;54.504;9.588;2022-10-15T09:51:39;100566.09;;;14.33;100.00
8398;BME280;4236;54.504;9.588;2022-10-15T09:54:15;100562.75;;;14.31;100.00
8398;BME280;4236;54.504;9.588;2022-10-15T09:56:48;100568.94;;;14.31;100.00
8398;BME280;4236;54.504;9.588;2022-10-15T09:59:20;100572.31;;;14.27;100.00
8398;BME280;4236;54.504;9.588;2022-10-15T10:01:56;100565.44;;;14.31;100.00
8398;BME280;4236;54.504;9.588;2022-10-15T10:04:25;100573.44;;;14.37;100.00
8398;BME280;4236;54.504;9.588;2022-10-15T10:06:58;100573.22;;;14.39;100.00
8398;BME280;4236;54.504;9.588;2022-10-15T10:09:30;100574.13;;;14.51;100.00
8398;BME280;4236;54.504;9.588;2022-10-15T10:12:00;100571.09;;;14.59;100.00
8398;BME280;4236;54.504;9.588;2022-10-15T10:14:31;100571.84;;;14.66;100.00
8398;BME280;4236;54.504;9.588;2022-10-15T10:17:13;100567.81;;;14.75;100.00
8398;BME280;4236;54.504;9.588;2022-10-15T10:19:42;100564.41;;;14.80;100.00
8398;BME280;4236;54.504;9.588;2022-10-15T10:22:16;100570.00;;;14.78;100.00
8398;BME280;4236;54.504;9.588;2022-10-15T10:24:45;100561.81;;;14.73;100.00
8398;BME280;4236;54.504;9.588;2022-10-15T10:27:18;100565.91;;;14.76;100.00
8398;BME280;4236;54.504;9.588;2022-10-15T10:29:51;100567.31;;;14.78;100.00
8398;BME280;4236;54.504;9.588;2022-10-15T10:32:22;100569.34;;;14.83;100.00
8398;BME280;4236;54.504;9.588;2022-10-15T10:34:53;100567.22;;;14.85;100.00
8398;BME280;4236;54.504;9.588;2022-10-15T10:37:22;100560.00;;;14.85;100.00
8398;BME280;4236;54.504;9.588;2022-10-15T10:39:52;100572.75;;;14.90;100.00
8398;BME280;4236;54.504;9.588;2022-10-15T10:42:27;100560.38;;;14.89;100.00
8398;BME280;4236;54.504;9.588;2022-10-15T10:45:15;100560.84;;;14.98;100.00
8398;BME280;4236;54.504;9.588;2022-10-15T10:47:44;100555.97;;;15.18;100.00
8398;BME280;4236;54.504;9.588;2022-10-15T10:50:33;100557.09;;;15.40;100.00
8398;BME280;4236;54.504;9.588;2022-10-15T10:53:19;100558.88;;;15.69;100.00
8398;BME280;4236;54.504;9.588;2022-10-15T10:55:48;100559.56;;;15.88;100.00
8398;BME280;4236;54.504;9.588;2022-10-15T10:58:18;100549.84;;;15.98;100.00
8398;BME280;4236;54.504;9.588;2022-10-15T11:00:52;100551.56;;;16.04;100.00
8398;BME280;4236;54.504;9.588;2022-10-15T11:03:31;100542.00;;;16.09;100.00
8398;BME280;4236;54.504;9.588;2022-10-15T11:06:20;100552.16;;;16.18;100.00
8398;BME280;4236;54.504;9.588;2022-10-15T11:09:01;100546.78;;;16.18;100.00
8398;BME280;4236;54.504;9.588;2022-10-15T11:11:38;100540.66;;;16.23;100.00
8398;BME280;4236;54.504;9.588;2022-10-15T11:14:16;100537.41;;;16.21;100.00
8398;BME280;4236;54.504;9.588;2022-10-15T11:16:52;100529.28;;;16.32;100.00
8398;BME280;4236;54.504;9.588;2022-10-15T11:19:28;100530.31;;;16.54;100.00
8398;BME280;4236;54.504;9.588;2022-10-15T11:22:35;100527.81;;;16.53;100.00
8398;BME280;4236;54.504;9.588;2022-10-15T11:25:16;100525.44;;;16.68;100.00
8398;BME280;4236;54.504;9.588;2022-10-15T11:27:58;100517.00;;;17.09;100.00
8398;BME280;4236;54.504;9.588;2022-10-15T11:30:38;100523.69;;;17.40;100.00
8398;BME280;4236;54.504;9.588;2022-10-15T11:33:27;100514.56;;;17.58;100.00
8398;BME280;4236;54.504;9.588;2022-10-15T11:36:07;100510.59;;;17.65;100.00
8398;BME280;4236;54.504;9.588;2022-10-15T11:38:41;100527.25;;;17.79;100.00
8398;BME280;4236;54.504;9.588;2022-10-15T11:41:22;100528.06;;;17.80;100.00
8398;BME280;4236;54.504;9.588;2022-10-15T11:44:22;100527.31;;;17.84;100.00
8398;BME280;4236;54.504;9.588;2022-10-15T11:47:02;100529.41;;;17.99;100.00
8398;BME280;4236;54.504;9.588;2022-10-15T11:49:41;100515.34;;;18.18;100.00
8398;BME280;4236;54.504;9.588;2022-10-15T11:52:20;100514.72;;;18.33;100.00
8398;BME280;4236;54.504;9.588;2022-10-15T11:54:59;100518.19;;;18.50;100.00
8398;BME280;4236;54.504;9.588;2022-10-15T11:57:33;100508.28;;;18.61;100.00
8398;BME280;4236;54.504;9.588;2022-10-15T12:00:05;100501.69;;;18.52;100.00
8398;BME280;4236;54.504;9.588;2022-10-15T12:02:39;100502.09;;;18.39;100.00
8398;BME280;4236;54.504;9.588;2022-10-15T12:05:09;100504.63;;;18.23;100.00
8398;BME280;4236;54.504;9.588;2022-10-15T12:07:42;100514.03;;;18.21;100.00
8398;BME280;4236;54.504;9.588;2022-10-15T12:10:28;100509.50;;;18.05;100.00
8398;BME280;4236;54.504;9.588;2022-10-15T12:13:05;100514.78;;;17.95;100.00
8398;BME280;4236;54.504;9.588;2022-10-15T12:15:41;100508.59;;;17.78;100.00
8398;BME280;4236;54.504;9.588;2022-10-15T12:18:16;100508.56;;;17.73;100.00
8398;BME280;4236;54.504;9.588;2022-10-15T12:20:46;100505.19;;;17.65;100.00
8398;BME280;4236;54.504;9.588;2022-10-15T12:23:25;100505.53;;;17.52;100.00
8398;BME280;4236;54.504;9.588;2022-10-15T12:25:53;100495.59;;;17.36;100.00
8398;BME280;4236;54.504;9.588;2022-10-15T12:28:23;100496.91;;;17.34;100.00
8398;BME280;4236;54.504;9.588;2022-10-15T12:30:54;100483.50;;;17.39;100.00
8398;BME280;4236;54.504;9.588;2022-10-15T12:33:27;100481.19;;;17.47;100.00
8398;BME280;4236;54.504;9.588;2022-10-15T12:35:58;100481.69;;;17.61;100.00
8398;BME280;4236;54.504;9.588;2022-10-15T12:38:28;100470.91;;;17.61;100.00
8398;BME280;4236;54.504;9.588;2022-10-15T12:41:02;100465.34;;;17.67;100.00
8398;BME280;4236;54.504;9.588;2022-10-15T12:43:33;100467.06;;;17.57;100.00
8398;BME280;4236;54.504;9.588;2022-10-15T12:46:03;100455.63;;;17.50;100.00
8398;BME280;4236;54.504;9.588;2022-10-15T12:48:35;100457.44;;;17.61;100.00
8398;BME280;4236;54.504;9.588;2022-10-15T12:51:29;100451.41;;;17.76;100.00
8398;BME280;4236;54.504;9.588;2022-10-15T12:53:58;100456.53;;;17.77;100.00
8398;BME280;4236;54.504;9.588;2022-10-15T12:56:36;100464.94;;;17.81;100.00
8398;BME280;4236;54.504;9.588;2022-10-15T12:59:27;100455.31;;;17.85;100.00
8398;BME280;4236;54.504;9.588;2022-10-15T13:01:55;100457.75;;;17.86;100.00
8398;BME280;4236;54.504;9.588;2022-10-15T13:04:22;100440.75;;;17.86;100.00
8398;BME280;4236;54.504;9.588;2022-10-15T13:07:02;100447.53;;;17.88;100.00
8398;BME280;4236;54.504;9.588;2022-10-15T13:09:30;100441.19;;;17.99;100.00
8398;BME280;4236;54.504;9.588;2022-10-15T13:11:59;100439.97;;;18.12;100.00
8398;BME280;4236;54.504;9.588;2022-10-15T13:14:31;100437.84;;;18.41;100.00
8398;BME280;4236;54.504;9.588;2022-10-15T13:17:04;100432.88;;;18.28;100.00
8398;BME280;4236;54.504;9.588;2022-10-15T13:19:36;100430.94;;;18.01;100.00
8398;BME280;4236;54.504;9.588;2022-10-15T13:22:17;100437.47;;;17.84;100.00